Terminal Aerodrome Forecast
Issued by NWS Upton, NY

Home | Current Version | Previous Version | Text Only | Print | Product List | Glossary On
Versions: 1 2 3 4 5 6 7 8 9 10 11 12 13 14 15 16 17 18 19 20 21 22 23 24 25 26 27 28 29 30 31 32 33 34 35 36 37 38
000
FTUS41 KOKX 020536
TAFJFK
TAF
KJFK 020536Z 0206/0312 VRB04KT P6SM FEW250
     FM021000 21006KT P6SM SCT120 SCT250
     FM021400 20015KT P6SM SCT250
     FM021700 19022G30KT P6SM SCT250
     FM021900 19028G35KT P6SM SCT250
     FM030000 20024G32KT P6SM BKN150
     FM030300 21022G30KT P6SM SCT060 BKN100
     FM030600 22021G28KT P6SM VCSH BKN060
     FM030900 22018KT 4SM -RA BKN015=

USA.gov is the U.S. government's official web portal to all federal, state and local government web resources and services.